createdAt,value
2022-12-03T00:03:02.940Z,34.97
2022-12-03T00:07:19.113Z,28.58
2022-12-03T00:11:35.292Z,33.63
2022-12-03T00:15:51.522Z,33.75
2022-12-03T00:20:09.797Z,33.85
2022-12-03T00:24:25.955Z,32.75
2022-12-03T00:28:42.176Z,38.20
2022-12-03T00:32:58.372Z,36.70
2022-12-03T00:37:14.576Z,31.50
2022-12-03T00:41:30.677Z,30.33
2022-12-03T00:45:46.818Z,34.45
2022-12-03T00:50:03.019Z,28.87
2022-12-03T00:54:19.214Z,34.15
2022-12-03T00:58:35.419Z,28.83
2022-12-03T01:02:52.960Z,32.80
2022-12-03T01:07:09.765Z,31.62
2022-12-03T01:11:37.788Z,41.22
2022-12-03T01:15:54.166Z,38.05
2022-12-03T01:20:11.222Z,33.28
2022-12-03T01:24:27.623Z,35.03
2022-12-03T01:28:43.846Z,34.00
2022-12-03T01:33:00.045Z,31.40
2022-12-03T01:37:16.783Z,28.15
2022-12-03T01:41:33.717Z,30.40
2022-12-03T01:45:49.840Z,28.35
2022-12-03T01:50:16.982Z,28.87
2022-12-03T01:54:41.652Z,35.90
2022-12-03T01:58:57.910Z,40.22
2022-12-03T02:03:22.672Z,41.67
2022-12-03T02:07:38.797Z,34.80
2022-12-03T02:11:55.032Z,37.15
2022-12-03T02:16:11.346Z,38.40
2022-12-03T02:20:27.711Z,39.30
2022-12-03T02:24:56.095Z,37.90
2022-12-03T02:29:12.434Z,34.85
2022-12-03T02:33:28.719Z,35.80
2022-12-03T02:37:46.330Z,35.35
2022-12-03T02:42:21.611Z,33.72
2022-12-03T02:46:37.969Z,34.00
2022-12-03T02:51:00.629Z,38.55
2022-12-03T02:55:17.841Z,32.90
2022-12-03T02:59:34.217Z,34.70
2022-12-03T03:03:50.816Z,35.50
2022-12-03T03:08:09.072Z,32.47
2022-12-03T03:12:25.368Z,36.58
2022-12-03T03:16:41.749Z,44.35
2022-12-03T03:21:01.117Z,34.53
2022-12-03T03:25:21.209Z,36.15
2022-12-03T03:29:37.490Z,43.15
2022-12-03T03:33:54.037Z,38.20
2022-12-03T03:38:10.580Z,38.28
2022-12-03T03:42:26.875Z,35.78
2022-12-03T03:46:43.419Z,34.53
2022-12-03T03:50:59.845Z,39.05
2022-12-03T03:55:16.132Z,36.22
2022-12-03T03:59:32.381Z,37.17
2022-12-03T04:03:48.591Z,34.65
2022-12-03T04:08:05.196Z,36.70
2022-12-03T04:12:39.780Z,36.22
2022-12-03T04:16:58.687Z,33.10
2022-12-03T04:21:41.624Z,38.28
2022-12-03T04:26:16.537Z,30.70
2022-12-03T04:30:32.721Z,42.97
2022-12-03T04:35:07.400Z,40.80
2022-12-03T04:39:23.704Z,37.15
2022-12-03T04:43:59.842Z,39.90
2022-12-03T04:48:16.069Z,33.10
2022-12-03T04:52:32.252Z,36.67
2022-12-03T04:56:48.491Z,40.85
2022-12-03T05:01:04.757Z,40.83
2022-12-03T05:05:21.019Z,37.22
2022-12-03T05:09:37.164Z,37.70
2022-12-03T05:13:54.050Z,35.13
2022-12-03T05:18:10.151Z,39.80
2022-12-03T05:22:26.308Z,44.20
2022-12-03T05:26:42.438Z,34.38
2022-12-03T05:30:58.711Z,36.60
2022-12-03T05:35:14.948Z,34.10
2022-12-03T05:39:31.144Z,39.53
2022-12-03T05:43:47.290Z,39.05
2022-12-03T05:48:04.874Z,35.80
2022-12-03T05:52:20.948Z,41.37
2022-12-03T05:56:37.050Z,38.65
2022-12-03T06:00:53.125Z,39.80
2022-12-03T06:05:11.313Z,37.40
2022-12-03T06:09:27.560Z,40.85
2022-12-03T06:13:43.680Z,35.55
2022-12-03T06:17:59.829Z,37.13
2022-12-03T06:22:19.501Z,38.50
2022-12-03T06:26:35.661Z,38.55
2022-12-03T06:30:51.872Z,36.42
2022-12-03T06:35:08.514Z,41.17
2022-12-03T06:39:24.644Z,38.20
2022-12-03T06:43:40.761Z,37.63
2022-12-03T06:47:57.005Z,37.92
2022-12-03T06:52:13.151Z,37.92
2022-12-03T06:56:35.041Z,38.83
2022-12-03T07:00:53.219Z,38.53
2022-12-03T07:05:09.978Z,41.72
2022-12-03T07:09:26.118Z,36.38
2022-12-03T07:13:42.327Z,34.97
2022-12-03T07:17:58.553Z,35.25
2022-12-03T07:22:14.700Z,34.30
2022-12-03T07:26:30.885Z,36.33
2022-12-03T07:30:47.110Z,33.80
2022-12-03T07:35:07.394Z,37.65
2022-12-03T07:39:23.566Z,34.78
2022-12-03T07:43:39.625Z,36.03
2022-12-03T07:47:55.769Z,42.53
2022-12-03T07:52:11.953Z,33.45
2022-12-03T07:56:28.108Z,30.88
2022-12-03T08:00:44.430Z,38.13
2022-12-03T08:05:00.655Z,32.00
2022-12-03T08:09:16.849Z,36.50
2022-12-03T08:13:33.947Z,37.88
2022-12-03T08:17:56.957Z,32.47
2022-12-03T08:22:16.891Z,37.58
2022-12-03T08:26:32.997Z,33.95
2022-12-03T08:31:20.374Z,36.42
2022-12-03T08:35:36.526Z,38.80
2022-12-03T08:39:54.922Z,40.17
2022-12-03T08:44:36.733Z,36.50
2022-12-03T08:48:52.904Z,36.28
2022-12-03T08:53:09.011Z,34.20
2022-12-03T08:57:30.518Z,34.60
2022-12-03T09:01:49.025Z,30.08
2022-12-03T09:06:05.659Z,36.83
2022-12-03T09:10:21.829Z,33.05
2022-12-03T09:14:38.107Z,31.70
2022-12-03T09:18:54.238Z,30.92
2022-12-03T09:23:10.424Z,35.45
2022-12-03T09:27:26.691Z,34.13
2022-12-03T09:31:42.948Z,32.22
2022-12-03T09:36:00.005Z,38.58
2022-12-03T09:40:16.316Z,34.67
2022-12-03T09:44:34.477Z,35.15
2022-12-03T09:48:51.033Z,37.42
2022-12-03T09:53:07.385Z,38.25
2022-12-03T09:57:23.899Z,39.28
2022-12-03T10:01:40.291Z,40.22
2022-12-03T10:05:56.692Z,34.90
2022-12-03T10:10:23.690Z,37.17
2022-12-03T10:14:40.543Z,33.75
2022-12-03T10:18:59.731Z,40.97
2022-12-03T10:23:26.882Z,36.75
2022-12-03T10:27:43.609Z,36.83
2022-12-03T10:32:12.963Z,35.78
2022-12-03T10:36:29.073Z,38.15
2022-12-03T10:40:46.097Z,37.20
2022-12-03T10:45:22.793Z,31.85
2022-12-03T10:49:39.595Z,38.50
2022-12-03T10:53:55.673Z,32.78
2022-12-03T10:58:32.188Z,35.20
2022-12-03T11:02:54.900Z,33.08
2022-12-03T11:07:15.649Z,35.25
2022-12-03T11:11:32.099Z,40.85
2022-12-03T11:15:48.722Z,36.60
2022-12-03T11:20:05.727Z,36.95
2022-12-03T11:24:22.093Z,37.40
2022-12-03T11:28:47.274Z,36.95
2022-12-03T11:33:03.417Z,34.72
2022-12-03T11:37:19.547Z,35.65
2022-12-03T11:41:36.002Z,33.42
2022-12-03T11:45:52.374Z,38.75
2022-12-03T11:50:37.619Z,35.05
2022-12-03T11:55:16.291Z,36.45
2022-12-03T11:59:32.462Z,35.50
2022-12-03T12:03:50.286Z,38.65
2022-12-03T12:08:18.332Z,34.17
2022-12-03T12:12:54.393Z,33.40
2022-12-03T12:17:31.071Z,29.23
2022-12-03T12:21:50.520Z,32.42
2022-12-03T12:26:07.708Z,32.25
2022-12-03T12:30:24.270Z,30.02
2022-12-03T12:34:42.084Z,33.00
2022-12-03T12:38:59.925Z,31.77
2022-12-03T12:43:23.495Z,34.70
2022-12-03T12:47:44.021Z,34.45
2022-12-03T12:52:01.388Z,31.73
2022-12-03T12:56:31.856Z,31.35
2022-12-03T13:00:59.961Z,28.52
2022-12-03T13:05:16.447Z,31.48
2022-12-03T13:09:33.102Z,27.60
2022-12-03T13:13:49.259Z,28.42
2022-12-03T13:18:23.852Z,27.35
2022-12-03T13:22:40.094Z,26.33
2022-12-03T13:26:56.763Z,24.40
2022-12-03T13:31:33.886Z,25.08
2022-12-03T13:35:52.966Z,25.65
2022-12-03T13:40:21.983Z,24.30
2022-12-03T13:44:43.240Z,26.10
2022-12-03T13:49:01.905Z,23.83
2022-12-03T13:53:22.280Z,25.30
2022-12-03T13:57:38.351Z,23.75
2022-12-03T14:01:54.540Z,26.08
2022-12-03T14:06:10.757Z,25.35
2022-12-03T14:10:26.929Z,27.05
2022-12-03T14:14:43.095Z,22.65
2022-12-03T14:18:59.275Z,24.08
2022-12-03T14:23:15.870Z,24.60
2022-12-03T14:27:32.062Z,25.33
2022-12-03T14:31:48.214Z,25.20
2022-12-03T14:36:04.553Z,24.02
2022-12-03T14:40:21.862Z,22.85
2022-12-03T14:44:38.732Z,22.45
2022-12-03T14:48:54.817Z,26.92
2022-12-03T14:53:11.003Z,21.33
2022-12-03T14:57:27.164Z,21.48
2022-12-03T15:01:43.427Z,23.33
2022-12-03T15:06:00.827Z,26.73
2022-12-03T15:10:17.043Z,24.30
2022-12-03T15:14:33.348Z,29.75
2022-12-03T15:18:49.885Z,28.65
2022-12-03T15:23:08.880Z,25.42
2022-12-03T15:27:28.981Z,24.48
2022-12-03T15:31:45.203Z,26.90
2022-12-03T15:36:01.361Z,27.85
2022-12-03T15:40:17.558Z,25.12
2022-12-03T15:44:33.668Z,27.83
2022-12-03T15:48:50.091Z,25.25
2022-12-03T15:53:06.328Z,24.48
2022-12-03T15:57:23.402Z,28.25
2022-12-03T16:01:44.748Z,25.90
2022-12-03T16:06:30.670Z,21.90
2022-12-03T16:10:52.534Z,21.45
2022-12-03T16:15:16.585Z,23.38
2022-12-03T16:19:35.536Z,27.70
2022-12-03T16:23:52.206Z,24.80
2022-12-03T16:28:09.483Z,25.30
2022-12-03T16:32:25.578Z,22.10
2022-12-03T16:36:41.639Z,22.83
2022-12-03T16:40:57.759Z,25.00
2022-12-03T16:45:36.786Z,27.90
2022-12-03T16:49:53.087Z,26.98
2022-12-03T16:54:09.406Z,30.83
2022-12-03T16:58:25.532Z,30.90
2022-12-03T17:02:41.661Z,29.67
2022-12-03T17:06:57.897Z,29.37
2022-12-03T17:11:14.186Z,28.55
2022-12-03T17:15:31.842Z,29.58
2022-12-03T17:19:53.984Z,27.95
2022-12-03T17:24:11.358Z,31.40
2022-12-03T17:28:30.234Z,30.60
2022-12-03T17:32:46.955Z,34.53
2022-12-03T17:37:10.911Z,36.30
2022-12-03T17:41:29.039Z,31.52
2022-12-03T17:45:46.410Z,25.98
2022-12-03T17:50:02.876Z,24.75
2022-12-03T17:54:19.015Z,22.67
2022-12-03T17:58:35.100Z,22.62
2022-12-03T18:02:53.222Z,24.10
2022-12-03T18:07:09.341Z,24.20
2022-12-03T18:11:25.644Z,26.73
2022-12-03T18:15:41.784Z,23.90
2022-12-03T18:19:58.304Z,24.87
2022-12-03T18:24:14.659Z,32.03
2022-12-03T18:28:33.647Z,25.40
2022-12-03T18:32:50.808Z,25.85
2022-12-03T18:37:06.913Z,26.77
2022-12-03T18:41:26.321Z,28.08
2022-12-03T18:45:43.106Z,22.45
2022-12-03T18:50:02.069Z,24.58
2022-12-03T18:54:19.040Z,29.27
2022-12-03T18:58:36.030Z,25.02
2022-12-03T19:03:02.898Z,24.25
2022-12-03T19:07:21.080Z,24.60
2022-12-03T19:11:39.769Z,25.92
2022-12-03T19:15:56.387Z,22.37
2022-12-03T19:20:13.091Z,25.60
2022-12-03T19:24:30.733Z,26.10
2022-12-03T19:28:48.072Z,25.05
2022-12-03T19:33:04.659Z,31.98
2022-12-03T19:37:20.746Z,31.25
2022-12-03T19:41:36.900Z,24.98
2022-12-03T19:45:54.213Z,25.15
2022-12-03T19:50:11.454Z,25.48
2022-12-03T19:54:28.250Z,28.45
2022-12-03T19:58:53.312Z,26.40
2022-12-03T20:03:10.190Z,26.90
2022-12-03T20:07:31.208Z,29.02
2022-12-03T20:11:51.098Z,29.42
2022-12-03T20:16:09.130Z,32.08
2022-12-03T20:20:25.327Z,28.08
2022-12-03T20:24:41.504Z,26.80
2022-12-03T20:28:58.714Z,30.02
2022-12-03T20:33:14.763Z,27.62
2022-12-03T20:37:32.234Z,28.48
2022-12-03T20:41:48.631Z,28.38
2022-12-03T20:46:22.075Z,30.23
2022-12-03T20:50:41.769Z,31.50
2022-12-03T20:54:58.552Z,24.63
2022-12-03T20:59:26.129Z,25.30
2022-12-03T21:03:42.430Z,29.80
2022-12-03T21:07:58.646Z,26.05
2022-12-03T21:12:14.791Z,30.40
2022-12-03T21:17:06.121Z,27.85
2022-12-03T21:21:11.710Z,27.48
2022-12-03T21:25:27.793Z,28.67
2022-12-03T21:29:43.917Z,26.98
2022-12-03T21:34:00.114Z,28.15
2022-12-03T21:38:16.344Z,30.20
2022-12-03T21:42:35.970Z,28.23
2022-12-03T21:47:10.205Z,30.30
2022-12-03T21:51:29.818Z,32.17
2022-12-03T21:55:46.000Z,26.85
2022-12-03T22:00:03.468Z,27.10
2022-12-03T22:04:31.010Z,25.45
2022-12-03T22:08:47.166Z,26.12
2022-12-03T22:13:03.322Z,24.42
2022-12-03T22:17:19.493Z,27.92
2022-12-03T22:21:35.825Z,27.77
2022-12-03T22:26:03.160Z,27.37
2022-12-03T22:30:19.432Z,27.48
2022-12-03T22:34:35.601Z,30.45
2022-12-03T22:38:52.174Z,24.87
2022-12-03T22:43:08.278Z,28.27
2022-12-03T22:47:24.488Z,29.55
2022-12-03T22:51:40.649Z,30.92
2022-12-03T22:55:58.294Z,28.65
2022-12-03T23:00:15.168Z,27.87
2022-12-03T23:04:34.487Z,26.92
2022-12-03T23:08:51.215Z,29.05
2022-12-03T23:13:08.729Z,32.22
2022-12-03T23:17:28.221Z,30.37
2022-12-03T23:21:44.417Z,31.70
2022-12-03T23:26:06.852Z,30.48
2022-12-03T23:30:23.065Z,31.15
2022-12-03T23:34:39.297Z,29.80
2022-12-03T23:38:55.791Z,32.30
2022-12-03T23:43:11.884Z,31.52
2022-12-03T23:47:28.192Z,31.80
2022-12-03T23:51:44.383Z,33.08
2022-12-03T23:56:00.517Z,30.77
